Larchmont, New York
Current Conditions -  °F | °C
As of 7:56 PM on Sunday 21 Dec 2014 (Local Time) from KHPN Reporting Station
Haze Haze  
Wind Chill: 26°   Ceiling: 1600
Heat Index: 32°   Visibility: 6mi
Dew Point: 29°   Wind: 7mph
Humidity: 88%   Direction: 330°NNW
Pressure: 30.31"   Gusts: NA
Location:  40.93°N, 73.75°W
Report Text: KHPN 220056Z 33006KT 6SM BR OVC016 00/M02 A3031 RMK AO2 SLP273 T00001017
Loading
Personal Weather Stations






























Interactive Weather Map New forecast layout! Learn more

10-Day Weather Forecast

Advertisements
Track Severe Weather on mobile